sensor_id;sensor_type;location;lat;lon;timestamp;temperature;humidity
5358;DHT22;2702;51.014;7.170;2022-08-11T00:01:27;22.20;99.90
5358;DHT22;2702;51.014;7.170;2022-08-11T00:03:58;22.20;99.90
5358;DHT22;2702;51.014;7.170;2022-08-11T00:06:32;22.20;99.90
5358;DHT22;2702;51.014;7.170;2022-08-11T00:09:02;22.10;99.90
5358;DHT22;2702;51.014;7.170;2022-08-11T00:11:34;22.10;99.90
5358;DHT22;2702;51.014;7.170;2022-08-11T00:14:03;22.10;99.90
5358;DHT22;2702;51.014;7.170;2022-08-11T00:16:29;22.10;99.90
5358;DHT22;2702;51.014;7.170;2022-08-11T00:18:57;22.10;99.90
5358;DHT22;2702;51.014;7.170;2022-08-11T00:21:26;22.00;99.90
5358;DHT22;2702;51.014;7.170;2022-08-11T00:23:59;22.00;99.90
5358;DHT22;2702;51.014;7.170;2022-08-11T00:26:26;22.00;99.90
5358;DHT22;2702;51.014;7.170;2022-08-11T00:28:53;21.90;99.90
5358;DHT22;2702;51.014;7.170;2022-08-11T00:31:28;21.90;99.90
5358;DHT22;2702;51.014;7.170;2022-08-11T00:33:56;21.90;99.90
5358;DHT22;2702;51.014;7.170;2022-08-11T00:36:28;21.90;99.90
5358;DHT22;2702;51.014;7.170;2022-08-11T00:39:05;21.90;99.90
5358;DHT22;2702;51.014;7.170;2022-08-11T01:04:15;21.50;99.90
5358;DHT22;2702;51.014;7.170;2022-08-11T01:31:49;21.30;99.90
5358;DHT22;2702;51.014;7.170;2022-08-11T01:42:46;21.20;99.90
5358;DHT22;2702;51.014;7.170;2022-08-11T01:45:47;21.20;99.90
5358;DHT22;2702;51.014;7.170;2022-08-11T01:48:36;21.20;99.90
5358;DHT22;2702;51.014;7.170;2022-08-11T01:52:14;21.20;99.90
5358;DHT22;2702;51.014;7.170;2022-08-11T01:54:26;21.20;99.90
5358;DHT22;2702;51.014;7.170;2022-08-11T01:57:13;21.20;99.90
5358;DHT22;2702;51.014;7.170;2022-08-11T01:59:48;21.20;99.90
5358;DHT22;2702;51.014;7.170;2022-08-11T02:06:03;21.10;99.90
5358;DHT22;2702;51.014;7.170;2022-08-11T02:08:23;21.10;99.90
5358;DHT22;2702;51.014;7.170;2022-08-11T02:25:49;20.90;99.90
5358;DHT22;2702;51.014;7.170;2022-08-11T02:28:20;20.80;99.90
5358;DHT22;2702;51.014;7.170;2022-08-11T02:31:06;20.80;99.90
5358;DHT22;2702;51.014;7.170;2022-08-11T02:33:59;20.80;99.90
5358;DHT22;2702;51.014;7.170;2022-08-11T02:36:48;20.80;99.90
5358;DHT22;2702;51.014;7.170;2022-08-11T02:39:19;20.80;99.90
5358;DHT22;2702;51.014;7.170;2022-08-11T02:47:47;20.70;99.90
5358;DHT22;2702;51.014;7.170;2022-08-11T02:54:00;20.70;99.90
5358;DHT22;2702;51.014;7.170;2022-08-11T03:02:13;20.60;99.90
5358;DHT22;2702;51.014;7.170;2022-08-11T03:08:15;20.60;99.90
5358;DHT22;2702;51.014;7.170;2022-08-11T03:11:11;20.60;99.90
5358;DHT22;2702;51.014;7.170;2022-08-11T03:14:21;20.60;99.90
5358;DHT22;2702;51.014;7.170;2022-08-11T03:17:31;20.60;99.90
5358;DHT22;2702;51.014;7.170;2022-08-11T03:22:51;20.50;99.90
5358;DHT22;2702;51.014;7.170;2022-08-11T03:25:54;20.50;99.90
5358;DHT22;2702;51.014;7.170;2022-08-11T03:33:29;20.50;99.90
5358;DHT22;2702;51.014;7.170;2022-08-11T03:36:35;20.50;99.90
5358;DHT22;2702;51.014;7.170;2022-08-11T04:14:09;20.20;99.90
5358;DHT22;2702;51.014;7.170;2022-08-11T04:16:28;20.20;99.90
5358;DHT22;2702;51.014;7.170;2022-08-11T04:28:21;20.10;99.90
5358;DHT22;2702;51.014;7.170;2022-08-11T04:31:08;20.20;99.90
5358;DHT22;2702;51.014;7.170;2022-08-11T04:34:11;20.10;99.90
5358;DHT22;2702;51.014;7.170;2022-08-11T04:42:53;20.10;99.90
5358;DHT22;2702;51.014;7.170;2022-08-11T04:57:19;20.10;99.90
5358;DHT22;2702;51.014;7.170;2022-08-11T05:00:11;20.20;99.90
5358;DHT22;2702;51.014;7.170;2022-08-11T05:09:03;20.10;99.90
5358;DHT22;2702;51.014;7.170;2022-08-11T05:11:32;20.20;99.90
5358;DHT22;2702;51.014;7.170;2022-08-11T05:17:08;20.20;99.90
5358;DHT22;2702;51.014;7.170;2022-08-11T05:19:53;20.30;99.90
5358;DHT22;2702;51.014;7.170;2022-08-11T05:22:49;20.30;99.90
5358;DHT22;2702;51.014;7.170;2022-08-11T05:25:35;20.30;99.90
5358;DHT22;2702;51.014;7.170;2022-08-11T05:28:34;20.30;99.90
5358;DHT22;2702;51.014;7.170;2022-08-11T05:31:25;20.40;99.90
5358;DHT22;2702;51.014;7.170;2022-08-11T05:34:27;20.40;99.90
5358;DHT22;2702;51.014;7.170;2022-08-11T05:39:44;20.40;99.90
5358;DHT22;2702;51.014;7.170;2022-08-11T05:42:31;20.50;99.90
5358;DHT22;2702;51.014;7.170;2022-08-11T05:45:17;20.50;99.90
5358;DHT22;2702;51.014;7.170;2022-08-11T05:48:03;20.50;99.90
5358;DHT22;2702;51.014;7.170;2022-08-11T05:50:57;20.70;99.90
5358;DHT22;2702;51.014;7.170;2022-08-11T05:54:00;20.70;99.90
5358;DHT22;2702;51.014;7.170;2022-08-11T05:56:52;20.80;99.90
5358;DHT22;2702;51.014;7.170;2022-08-11T05:59:22;20.80;99.90
5358;DHT22;2702;51.014;7.170;2022-08-11T06:01:49;20.90;99.90
5358;DHT22;2702;51.014;7.170;2022-08-11T06:04:21;20.90;99.90
5358;DHT22;2702;51.014;7.170;2022-08-11T06:06:49;20.90;99.90
5358;DHT22;2702;51.014;7.170;2022-08-11T06:09:28;21.00;99.90
5358;DHT22;2702;51.014;7.170;2022-08-11T06:12:05;21.00;99.90
5358;DHT22;2702;51.014;7.170;2022-08-11T06:14:34;21.10;99.90
5358;DHT22;2702;51.014;7.170;2022-08-11T06:17:02;21.20;99.90
5358;DHT22;2702;51.014;7.170;2022-08-11T06:19:33;21.20;99.90
5358;DHT22;2702;51.014;7.170;2022-08-11T06:22:01;21.20;99.90
5358;DHT22;2702;51.014;7.170;2022-08-11T06:24:28;21.30;99.90
5358;DHT22;2702;51.014;7.170;2022-08-11T06:26:57;21.50;99.90
5358;DHT22;2702;51.014;7.170;2022-08-11T06:29:25;21.50;99.90
5358;DHT22;2702;51.014;7.170;2022-08-11T06:31:59;21.60;99.90
5358;DHT22;2702;51.014;7.170;2022-08-11T06:37:21;21.80;99.90
5358;DHT22;2702;51.014;7.170;2022-08-11T06:40:26;21.90;99.90
5358;DHT22;2702;51.014;7.170;2022-08-11T06:45:29;22.20;99.90
5358;DHT22;2702;51.014;7.170;2022-08-11T06:47:56;22.30;99.90
5358;DHT22;2702;51.014;7.170;2022-08-11T06:50:27;22.50;99.90
5358;DHT22;2702;51.014;7.170;2022-08-11T06:53:15;22.50;99.90
5358;DHT22;2702;51.014;7.170;2022-08-11T06:55:44;22.70;99.90
5358;DHT22;2702;51.014;7.170;2022-08-11T06:58:37;22.80;99.90
5358;DHT22;2702;51.014;7.170;2022-08-11T07:01:56;22.90;99.90
5358;DHT22;2702;51.014;7.170;2022-08-11T07:04:40;23.10;99.90
5358;DHT22;2702;51.014;7.170;2022-08-11T07:12:57;23.60;99.90
5358;DHT22;2702;51.014;7.170;2022-08-11T07:15:43;23.70;99.90
5358;DHT22;2702;51.014;7.170;2022-08-11T07:18:25;23.90;99.90
5358;DHT22;2702;51.014;7.170;2022-08-11T07:21:19;24.10;99.90
5358;DHT22;2702;51.014;7.170;2022-08-11T07:24:10;24.20;99.90
5358;DHT22;2702;51.014;7.170;2022-08-11T07:26:58;24.40;99.90
5358;DHT22;2702;51.014;7.170;2022-08-11T07:29:45;24.50;99.90
5358;DHT22;2702;51.014;7.170;2022-08-11T07:32:27;24.70;99.90
5358;DHT22;2702;51.014;7.170;2022-08-11T07:35:16;24.80;99.90
5358;DHT22;2702;51.014;7.170;2022-08-11T07:37:47;25.00;99.90
5358;DHT22;2702;51.014;7.170;2022-08-11T07:40:21;25.00;99.90
5358;DHT22;2702;51.014;7.170;2022-08-11T07:42:48;25.30;99.90
5358;DHT22;2702;51.014;7.170;2022-08-11T07:45:14;25.60;99.90
5358;DHT22;2702;51.014;7.170;2022-08-11T07:48:00;26.10;99.90
5358;DHT22;2702;51.014;7.170;2022-08-11T07:50:45;26.20;99.90
5358;DHT22;2702;51.014;7.170;2022-08-11T07:53:31;26.20;99.90
5358;DHT22;2702;51.014;7.170;2022-08-11T07:56:01;26.20;99.90
5358;DHT22;2702;51.014;7.170;2022-08-11T07:58:28;26.20;99.90
5358;DHT22;2702;51.014;7.170;2022-08-11T08:01:18;26.20;99.90
5358;DHT22;2702;51.014;7.170;2022-08-11T08:04:05;26.40;99.90
5358;DHT22;2702;51.014;7.170;2022-08-11T08:06:50;26.50;99.90
5358;DHT22;2702;51.014;7.170;2022-08-11T08:09:36;26.70;99.90
5358;DHT22;2702;51.014;7.170;2022-08-11T08:12:23;26.70;99.90
5358;DHT22;2702;51.014;7.170;2022-08-11T08:15:10;26.90;99.90
5358;DHT22;2702;51.014;7.170;2022-08-11T08:17:57;27.00;99.90
5358;DHT22;2702;51.014;7.170;2022-08-11T08:20:30;27.10;99.90
5358;DHT22;2702;51.014;7.170;2022-08-11T08:22:59;27.20;99.90
5358;DHT22;2702;51.014;7.170;2022-08-11T08:25:33;27.30;99.90
5358;DHT22;2702;51.014;7.170;2022-08-11T08:28:02;27.50;99.90
5358;DHT22;2702;51.014;7.170;2022-08-11T08:30:30;27.70;99.90
5358;DHT22;2702;51.014;7.170;2022-08-11T08:35:49;27.90;99.90
5358;DHT22;2702;51.014;7.170;2022-08-11T08:38:16;28.10;99.90
5358;DHT22;2702;51.014;7.170;2022-08-11T08:40:45;28.20;99.90
5358;DHT22;2702;51.014;7.170;2022-08-11T08:43:14;28.30;99.90
5358;DHT22;2702;51.014;7.170;2022-08-11T08:45:42;28.50;99.90
5358;DHT22;2702;51.014;7.170;2022-08-11T08:48:14;28.50;99.90
5358;DHT22;2702;51.014;7.170;2022-08-11T08:50:52;28.60;99.90
5358;DHT22;2702;51.014;7.170;2022-08-11T08:53:45;28.70;99.90
5358;DHT22;2702;51.014;7.170;2022-08-11T08:56:13;28.80;99.90
5358;DHT22;2702;51.014;7.170;2022-08-11T08:58:40;28.90;99.90
5358;DHT22;2702;51.014;7.170;2022-08-11T09:01:09;28.90;99.90
5358;DHT22;2702;51.014;7.170;2022-08-11T09:03:36;29.00;99.90
5358;DHT22;2702;51.014;7.170;2022-08-11T09:06:03;29.20;99.90
5358;DHT22;2702;51.014;7.170;2022-08-11T09:08:31;29.30;99.90
5358;DHT22;2702;51.014;7.170;2022-08-11T09:11:00;29.40;99.90
5358;DHT22;2702;51.014;7.170;2022-08-11T09:13:46;29.50;99.90
5358;DHT22;2702;51.014;7.170;2022-08-11T09:16:12;29.60;99.90
5358;DHT22;2702;51.014;7.170;2022-08-11T09:18:41;29.70;99.90
5358;DHT22;2702;51.014;7.170;2022-08-11T09:21:12;29.90;99.90
5358;DHT22;2702;51.014;7.170;2022-08-11T09:23:40;29.90;99.90
5358;DHT22;2702;51.014;7.170;2022-08-11T09:26:25;30.10;99.90
5358;DHT22;2702;51.014;7.170;2022-08-11T09:29:11;30.10;99.90
5358;DHT22;2702;51.014;7.170;2022-08-11T09:31:38;30.10;99.90
5358;DHT22;2702;51.014;7.170;2022-08-11T09:34:04;30.20;99.90
5358;DHT22;2702;51.014;7.170;2022-08-11T09:36:31;30.20;99.90
5358;DHT22;2702;51.014;7.170;2022-08-11T09:39:17;30.30;99.90
5358;DHT22;2702;51.014;7.170;2022-08-11T09:42:03;30.30;99.90
5358;DHT22;2702;51.014;7.170;2022-08-11T09:44:31;30.30;99.90
5358;DHT22;2702;51.014;7.170;2022-08-11T09:47:23;30.30;99.90
5358;DHT22;2702;51.014;7.170;2022-08-11T09:49:52;30.40;99.90
5358;DHT22;2702;51.014;7.170;2022-08-11T09:52:20;30.50;99.90
5358;DHT22;2702;51.014;7.170;2022-08-11T09:54:48;30.60;99.90
5358;DHT22;2702;51.014;7.170;2022-08-11T09:57:20;30.80;99.90
5358;DHT22;2702;51.014;7.170;2022-08-11T10:00:08;30.90;99.90
5358;DHT22;2702;51.014;7.170;2022-08-11T10:02:46;31.10;99.90
5358;DHT22;2702;51.014;7.170;2022-08-11T10:05:16;31.10;99.90
5358;DHT22;2702;51.014;7.170;2022-08-11T10:08:05;31.20;99.90
5358;DHT22;2702;51.014;7.170;2022-08-11T10:10:35;31.30;99.90
5358;DHT22;2702;51.014;7.170;2022-08-11T10:13:12;31.30;99.90
5358;DHT22;2702;51.014;7.170;2022-08-11T10:15:41;31.40;99.90
5358;DHT22;2702;51.014;7.170;2022-08-11T10:18:14;31.60;99.90
5358;DHT22;2702;51.014;7.170;2022-08-11T10:24:00;31.70;99.90
5358;DHT22;2702;51.014;7.170;2022-08-11T10:26:47;31.70;99.90
5358;DHT22;2702;51.014;7.170;2022-08-11T10:29:30;31.50;99.90
5358;DHT22;2702;51.014;7.170;2022-08-11T10:32:20;31.20;99.90
5358;DHT22;2702;51.014;7.170;2022-08-11T10:35:05;31.10;99.90
5358;DHT22;2702;51.014;7.170;2022-08-11T10:37:35;31.10;99.90
5358;DHT22;2702;51.014;7.170;2022-08-11T10:40:03;31.30;99.90
5358;DHT22;2702;51.014;7.170;2022-08-11T10:42:31;31.50;99.90
5358;DHT22;2702;51.014;7.170;2022-08-11T10:45:17;31.60;99.90
5358;DHT22;2702;51.014;7.170;2022-08-11T10:48:04;31.70;99.90
5358;DHT22;2702;51.014;7.170;2022-08-11T10:50:31;31.70;99.90
5358;DHT22;2702;51.014;7.170;2022-08-11T10:53:17;31.30;99.90
5358;DHT22;2702;51.014;7.170;2022-08-11T10:56:03;31.10;99.90
5358;DHT22;2702;51.014;7.170;2022-08-11T10:58:48;31.00;99.90
5358;DHT22;2702;51.014;7.170;2022-08-11T11:01:17;31.10;99.90
5358;DHT22;2702;51.014;7.170;2022-08-11T11:03:54;31.30;99.90
5358;DHT22;2702;51.014;7.170;2022-08-11T11:09:27;31.50;99.90
5358;DHT22;2702;51.014;7.170;2022-08-11T11:12:18;31.40;99.90
5358;DHT22;2702;51.014;7.170;2022-08-11T11:15:05;31.60;99.90
5358;DHT22;2702;51.014;7.170;2022-08-11T11:18:09;31.80;99.90
5358;DHT22;2702;51.014;7.170;2022-08-11T11:20:46;32.20;99.90
5358;DHT22;2702;51.014;7.170;2022-08-11T11:23:22;32.40;99.90
5358;DHT22;2702;51.014;7.170;2022-08-11T11:35:06;32.80;99.90
5358;DHT22;2702;51.014;7.170;2022-08-11T11:37:37;32.90;99.90
5358;DHT22;2702;51.014;7.170;2022-08-11T11:40:14;32.90;99.90
5358;DHT22;2702;51.014;7.170;2022-08-11T11:42:43;32.90;99.90
5358;DHT22;2702;51.014;7.170;2022-08-11T11:45:14;32.60;99.90
5358;DHT22;2702;51.014;7.170;2022-08-11T11:47:41;32.10;99.90
5358;DHT22;2702;51.014;7.170;2022-08-11T11:50:09;31.90;99.90
5358;DHT22;2702;51.014;7.170;2022-08-11T11:52:37;31.80;99.90
5358;DHT22;2702;51.014;7.170;2022-08-11T11:55:04;32.00;99.90
5358;DHT22;2702;51.014;7.170;2022-08-11T11:57:32;32.10;99.90
5358;DHT22;2702;51.014;7.170;2022-08-11T12:00:18;32.40;99.90
5358;DHT22;2702;51.014;7.170;2022-08-11T12:03:07;32.60;99.90
5358;DHT22;2702;51.014;7.170;2022-08-11T12:05:35;32.60;99.90
5358;DHT22;2702;51.014;7.170;2022-08-11T12:08:02;32.50;99.90
5358;DHT22;2702;51.014;7.170;2022-08-11T12:10:37;32.10;99.90
5358;DHT22;2702;51.014;7.170;2022-08-11T12:13:04;31.90;99.90
5358;DHT22;2702;51.014;7.170;2022-08-11T12:15:50;31.80;99.90
5358;DHT22;2702;51.014;7.170;2022-08-11T12:18:17;31.70;99.90
5358;DHT22;2702;51.014;7.170;2022-08-11T12:20:44;31.80;99.90
5358;DHT22;2702;51.014;7.170;2022-08-11T12:23:12;31.90;99.90
5358;DHT22;2702;51.014;7.170;2022-08-11T12:25:57;32.20;99.90
5358;DHT22;2702;51.014;7.170;2022-08-11T12:28:43;32.50;99.90
5358;DHT22;2702;51.014;7.170;2022-08-11T12:31:10;32.70;99.90
5358;DHT22;2702;51.014;7.170;2022-08-11T12:33:37;32.90;99.90
5358;DHT22;2702;51.014;7.170;2022-08-11T12:36:04;33.00;99.90
5358;DHT22;2702;51.014;7.170;2022-08-11T12:38:31;33.20;99.90
5358;DHT22;2702;51.014;7.170;2022-08-11T12:41:00;33.40;99.90
5358;DHT22;2702;51.014;7.170;2022-08-11T12:43:46;33.40;99.90
5358;DHT22;2702;51.014;7.170;2022-08-11T12:46:35;33.50;99.90
5358;DHT22;2702;51.014;7.170;2022-08-11T12:49:19;33.70;99.90
5358;DHT22;2702;51.014;7.170;2022-08-11T12:52:08;34.00;99.90
5358;DHT22;2702;51.014;7.170;2022-08-11T12:57:16;34.20;99.90
5358;DHT22;2702;51.014;7.170;2022-08-11T13:00:03;34.20;99.90
5358;DHT22;2702;51.014;7.170;2022-08-11T13:02:48;34.20;99.90
5358;DHT22;2702;51.014;7.170;2022-08-11T13:05:33;34.30;99.90
5358;DHT22;2702;51.014;7.170;2022-08-11T13:08:01;34.30;99.90
5358;DHT22;2702;51.014;7.170;2022-08-11T13:10:31;34.40;99.90
5358;DHT22;2702;51.014;7.170;2022-08-11T13:13:20;34.40;99.90
5358;DHT22;2702;51.014;7.170;2022-08-11T13:15:47;34.40;99.90
5358;DHT22;2702;51.014;7.170;2022-08-11T13:18:19;34.40;99.90
5358;DHT22;2702;51.014;7.170;2022-08-11T13:20:53;34.40;99.90
5358;DHT22;2702;51.014;7.170;2022-08-11T13:23:19;34.30;99.90
5358;DHT22;2702;51.014;7.170;2022-08-11T13:25:46;34.40;99.90
5358;DHT22;2702;51.014;7.170;2022-08-11T13:28:15;34.50;99.90
5358;DHT22;2702;51.014;7.170;2022-08-11T13:30:43;34.60;99.90
5358;DHT22;2702;51.014;7.170;2022-08-11T13:33:28;34.60;99.90
5358;DHT22;2702;51.014;7.170;2022-08-11T13:35:54;34.60;99.90
5358;DHT22;2702;51.014;7.170;2022-08-11T13:38:22;34.70;99.90
5358;DHT22;2702;51.014;7.170;2022-08-11T13:40:51;34.60;99.90
5358;DHT22;2702;51.014;7.170;2022-08-11T13:43:20;34.50;99.90
5358;DHT22;2702;51.014;7.170;2022-08-11T13:45:47;34.60;99.90
5358;DHT22;2702;51.014;7.170;2022-08-11T13:48:15;34.40;99.90
5358;DHT22;2702;51.014;7.170;2022-08-11T13:50:43;34.30;99.90
5358;DHT22;2702;51.014;7.170;2022-08-11T13:53:29;33.80;99.90
5358;DHT22;2702;51.014;7.170;2022-08-11T13:56:03;34.00;99.90
5358;DHT22;2702;51.014;7.170;2022-08-11T13:58:30;34.10;99.90
5358;DHT22;2702;51.014;7.170;2022-08-11T14:00:57;34.20;99.90
5358;DHT22;2702;51.014;7.170;2022-08-11T14:03:26;34.40;99.90
5358;DHT22;2702;51.014;7.170;2022-08-11T14:05:54;34.30;99.90
5358;DHT22;2702;51.014;7.170;2022-08-11T14:08:26;34.50;99.90
5358;DHT22;2702;51.014;7.170;2022-08-11T14:10:59;34.40;99.90
5358;DHT22;2702;51.014;7.170;2022-08-11T14:13:45;34.60;99.90
5358;DHT22;2702;51.014;7.170;2022-08-11T14:16:25;34.70;99.90
5358;DHT22;2702;51.014;7.170;2022-08-11T14:18:54;34.70;99.90
5358;DHT22;2702;51.014;7.170;2022-08-11T14:21:23;34.70;99.90
5358;DHT22;2702;51.014;7.170;2022-08-11T14:24:09;34.70;99.90
5358;DHT22;2702;51.014;7.170;2022-08-11T14:26:37;34.80;99.90
5358;DHT22;2702;51.014;7.170;2022-08-11T14:29:12;35.00;99.90
5358;DHT22;2702;51.014;7.170;2022-08-11T14:31:56;34.60;99.90
5358;DHT22;2702;51.014;7.170;2022-08-11T14:34:26;34.40;99.90
5358;DHT22;2702;51.014;7.170;2022-08-11T14:37:05;34.30;99.90
5358;DHT22;2702;51.014;7.170;2022-08-11T14:39:42;34.40;99.90
5358;DHT22;2702;51.014;7.170;2022-08-11T14:42:09;34.00;99.90
5358;DHT22;2702;51.014;7.170;2022-08-11T14:44:59;34.10;99.90
5358;DHT22;2702;51.014;7.170;2022-08-11T14:47:48;33.90;99.90
5358;DHT22;2702;51.014;7.170;2022-08-11T14:50:20;33.90;99.90
5358;DHT22;2702;51.014;7.170;2022-08-11T14:52:53;33.80;99.90
5358;DHT22;2702;51.014;7.170;2022-08-11T14:55:22;34.00;99.90
5358;DHT22;2702;51.014;7.170;2022-08-11T14:58:13;34.00;99.90
5358;DHT22;2702;51.014;7.170;2022-08-11T15:00:41;34.10;99.90
5358;DHT22;2702;51.014;7.170;2022-08-11T15:03:10;34.30;99.90
5358;DHT22;2702;51.014;7.170;2022-08-11T15:05:48;34.20;99.90
5358;DHT22;2702;51.014;7.170;2022-08-11T15:08:16;34.10;99.90
5358;DHT22;2702;51.014;7.170;2022-08-11T15:10:44;34.20;99.90
5358;DHT22;2702;51.014;7.170;2022-08-11T15:13:11;34.50;99.90
5358;DHT22;2702;51.014;7.170;2022-08-11T15:15:43;34.50;99.90
5358;DHT22;2702;51.014;7.170;2022-08-11T15:18:28;34.60;99.90
5358;DHT22;2702;51.014;7.170;2022-08-11T15:20:55;34.60;99.90
5358;DHT22;2702;51.014;7.170;2022-08-11T15:23:39;34.70;99.90
5358;DHT22;2702;51.014;7.170;2022-08-11T15:26:36;35.00;99.90
5358;DHT22;2702;51.014;7.170;2022-08-11T15:29:23;35.30;99.90
5358;DHT22;2702;51.014;7.170;2022-08-11T15:32:09;35.40;99.90
5358;DHT22;2702;51.014;7.170;2022-08-11T15:34:58;35.40;99.90
5358;DHT22;2702;51.014;7.170;2022-08-11T15:37:44;35.40;99.90
5358;DHT22;2702;51.014;7.170;2022-08-11T15:40:18;35.40;99.90
5358;DHT22;2702;51.014;7.170;2022-08-11T15:43:33;35.30;99.90
5358;DHT22;2702;51.014;7.170;2022-08-11T15:46:46;35.10;99.90
5358;DHT22;2702;51.014;7.170;2022-08-11T15:51:45;35.00;99.90
5358;DHT22;2702;51.014;7.170;2022-08-11T15:54:16;34.50;99.90
5358;DHT22;2702;51.014;7.170;2022-08-11T15:56:49;34.70;99.90
5358;DHT22;2702;51.014;7.170;2022-08-11T15:59:18;34.90;99.90
5358;DHT22;2702;51.014;7.170;2022-08-11T16:02:08;35.00;99.90
5358;DHT22;2702;51.014;7.170;2022-08-11T16:04:55;34.80;99.90
5358;DHT22;2702;51.014;7.170;2022-08-11T16:07:31;34.60;99.90
5358;DHT22;2702;51.014;7.170;2022-08-11T16:10:12;34.60;99.90
5358;DHT22;2702;51.014;7.170;2022-08-11T16:12:54;34.60;99.90
5358;DHT22;2702;51.014;7.170;2022-08-11T16:15:32;34.90;99.90
5358;DHT22;2702;51.014;7.170;2022-08-11T16:18:24;35.10;99.90
5358;DHT22;2702;51.014;7.170;2022-08-11T16:21:15;35.30;99.90
5358;DHT22;2702;51.014;7.170;2022-08-11T16:23:44;35.40;99.90
5358;DHT22;2702;51.014;7.170;2022-08-11T16:26:12;35.40;99.90
5358;DHT22;2702;51.014;7.170;2022-08-11T16:28:39;35.30;99.90
5358;DHT22;2702;51.014;7.170;2022-08-11T16:31:10;35.10;99.90
5358;DHT22;2702;51.014;7.170;2022-08-11T16:33:40;35.20;99.90
5358;DHT22;2702;51.014;7.170;2022-08-11T16:36:08;35.30;99.90
5358;DHT22;2702;51.014;7.170;2022-08-11T16:38:53;35.40;99.90
5358;DHT22;2702;51.014;7.170;2022-08-11T16:41:24;35.50;99.90
5358;DHT22;2702;51.014;7.170;2022-08-11T16:44:10;35.50;99.90
5358;DHT22;2702;51.014;7.170;2022-08-11T16:46:57;35.50;99.90
5358;DHT22;2702;51.014;7.170;2022-08-11T16:49:37;35.40;99.90
5358;DHT22;2702;51.014;7.170;2022-08-11T16:52:05;35.20;99.90
5358;DHT22;2702;51.014;7.170;2022-08-11T16:54:35;35.20;99.90
5358;DHT22;2702;51.014;7.170;2022-08-11T16:57:11;35.10;99.90
5358;DHT22;2702;51.014;7.170;2022-08-11T17:00:00;35.10;99.90
5358;DHT22;2702;51.014;7.170;2022-08-11T17:02:31;35.10;99.90
5358;DHT22;2702;51.014;7.170;2022-08-11T17:05:19;35.10;99.90
5358;DHT22;2702;51.014;7.170;2022-08-11T17:08:07;35.00;99.90
5358;DHT22;2702;51.014;7.170;2022-08-11T17:10:57;35.00;99.90
5358;DHT22;2702;51.014;7.170;2022-08-11T17:13:46;35.00;99.90
5358;DHT22;2702;51.014;7.170;2022-08-11T17:16:18;35.00;99.90
5358;DHT22;2702;51.014;7.170;2022-08-11T17:21:20;34.90;99.90
5358;DHT22;2702;51.014;7.170;2022-08-11T17:23:51;34.80;99.90
5358;DHT22;2702;51.014;7.170;2022-08-11T17:28:55;34.20;99.90
5358;DHT22;2702;51.014;7.170;2022-08-11T17:31:22;34.20;99.90
5358;DHT22;2702;51.014;7.170;2022-08-11T17:34:08;34.10;99.90
5358;DHT22;2702;51.014;7.170;2022-08-11T17:36:54;33.80;99.90
5358;DHT22;2702;51.014;7.170;2022-08-11T17:39:24;33.80;99.90
5358;DHT22;2702;51.014;7.170;2022-08-11T17:41:54;33.70;99.90
5358;DHT22;2702;51.014;7.170;2022-08-11T17:44:39;33.70;99.90
5358;DHT22;2702;51.014;7.170;2022-08-11T17:47:26;33.80;99.90
5358;DHT22;2702;51.014;7.170;2022-08-11T17:50:12;33.80;99.90
5358;DHT22;2702;51.014;7.170;2022-08-11T17:52:40;33.90;99.90
5358;DHT22;2702;51.014;7.170;2022-08-11T17:55:24;33.90;99.90
5358;DHT22;2702;51.014;7.170;2022-08-11T17:58:09;33.80;99.90
5358;DHT22;2702;51.014;7.170;2022-08-11T18:00:53;33.80;99.90
5358;DHT22;2702;51.014;7.170;2022-08-11T18:03:22;33.80;99.90
5358;DHT22;2702;51.014;7.170;2022-08-11T18:06:00;33.80;99.90
5358;DHT22;2702;51.014;7.170;2022-08-11T18:08:29;33.80;99.90
5358;DHT22;2702;51.014;7.170;2022-08-11T18:11:18;33.80;99.90
5358;DHT22;2702;51.014;7.170;2022-08-11T18:14:06;33.80;99.90
5358;DHT22;2702;51.014;7.170;2022-08-11T18:16:52;33.70;99.90
5358;DHT22;2702;51.014;7.170;2022-08-11T18:19:37;33.60;99.90
5358;DHT22;2702;51.014;7.170;2022-08-11T18:22:24;33.40;99.90
5358;DHT22;2702;51.014;7.170;2022-08-11T18:25:12;33.30;99.90
5358;DHT22;2702;51.014;7.170;2022-08-11T18:27:58;33.20;99.90
5358;DHT22;2702;51.014;7.170;2022-08-11T18:30:47;33.10;99.90
5358;DHT22;2702;51.014;7.170;2022-08-11T18:33:53;33.00;99.90
5358;DHT22;2702;51.014;7.170;2022-08-11T18:37:01;32.90;99.90
5358;DHT22;2702;51.014;7.170;2022-08-11T18:39:57;32.60;99.90
5358;DHT22;2702;51.014;7.170;2022-08-11T18:42:44;32.40;99.90
5358;DHT22;2702;51.014;7.170;2022-08-11T18:45:30;32.10;99.90
5358;DHT22;2702;51.014;7.170;2022-08-11T18:48:20;31.90;99.90
5358;DHT22;2702;51.014;7.170;2022-08-11T18:51:08;31.60;99.90
5358;DHT22;2702;51.014;7.170;2022-08-11T18:53:59;31.10;99.90
5358;DHT22;2702;51.014;7.170;2022-08-11T18:56:45;30.70;99.90
5358;DHT22;2702;51.014;7.170;2022-08-11T18:59:34;30.10;99.90
5358;DHT22;2702;51.014;7.170;2022-08-11T19:02:22;29.70;99.90
5358;DHT22;2702;51.014;7.170;2022-08-11T19:05:08;29.30;99.90
5358;DHT22;2702;51.014;7.170;2022-08-11T19:07:54;29.10;99.90
5358;DHT22;2702;51.014;7.170;2022-08-11T19:10:42;28.80;99.90
5358;DHT22;2702;51.014;7.170;2022-08-11T19:13:29;28.60;99.90
5358;DHT22;2702;51.014;7.170;2022-08-11T19:16:15;28.50;99.90
5358;DHT22;2702;51.014;7.170;2022-08-11T19:19:02;28.40;99.90
5358;DHT22;2702;51.014;7.170;2022-08-11T19:21:48;28.40;99.90
5358;DHT22;2702;51.014;7.170;2022-08-11T19:24:36;28.20;99.90
5358;DHT22;2702;51.014;7.170;2022-08-11T19:27:25;28.20;99.90
5358;DHT22;2702;51.014;7.170;2022-08-11T19:30:11;28.10;99.90
5358;DHT22;2702;51.014;7.170;2022-08-11T19:32:56;28.00;99.90
5358;DHT22;2702;51.014;7.170;2022-08-11T19:35:42;27.90;99.90
5358;DHT22;2702;51.014;7.170;2022-08-11T19:38:28;27.90;99.90
5358;DHT22;2702;51.014;7.170;2022-08-11T19:41:14;27.70;99.90
5358;DHT22;2702;51.014;7.170;2022-08-11T19:44:01;27.70;99.90
5358;DHT22;2702;51.014;7.170;2022-08-11T19:46:47;27.60;99.90
5358;DHT22;2702;51.014;7.170;2022-08-11T19:49:34;27.60;99.90
5358;DHT22;2702;51.014;7.170;2022-08-11T19:52:19;27.40;99.90
5358;DHT22;2702;51.014;7.170;2022-08-11T19:55:05;27.30;99.90
5358;DHT22;2702;51.014;7.170;2022-08-11T19:57:51;27.20;99.90
5358;DHT22;2702;51.014;7.170;2022-08-11T20:00:37;27.00;99.90
5358;DHT22;2702;51.014;7.170;2022-08-11T20:03:22;26.80;99.90
5358;DHT22;2702;51.014;7.170;2022-08-11T20:06:07;26.70;99.90
5358;DHT22;2702;51.014;7.170;2022-08-11T20:08:57;26.60;99.90
5358;DHT22;2702;51.014;7.170;2022-08-11T20:11:45;26.70;99.90
5358;DHT22;2702;51.014;7.170;2022-08-11T20:14:34;26.70;99.90
5358;DHT22;2702;51.014;7.170;2022-08-11T20:17:21;26.60;99.90
5358;DHT22;2702;51.014;7.170;2022-08-11T20:20:08;26.60;99.90
5358;DHT22;2702;51.014;7.170;2022-08-11T20:22:54;26.50;99.90
5358;DHT22;2702;51.014;7.170;2022-08-11T20:25:40;26.50;99.90
5358;DHT22;2702;51.014;7.170;2022-08-11T20:28:27;26.30;99.90
5358;DHT22;2702;51.014;7.170;2022-08-11T20:31:12;26.20;99.90
5358;DHT22;2702;51.014;7.170;2022-08-11T20:33:58;26.20;99.90
5358;DHT22;2702;51.014;7.170;2022-08-11T20:36:45;26.20;99.90
5358;DHT22;2702;51.014;7.170;2022-08-11T20:39:32;26.10;99.90
5358;DHT22;2702;51.014;7.170;2022-08-11T20:42:19;26.00;99.90
5358;DHT22;2702;51.014;7.170;2022-08-11T20:45:06;26.00;99.90
5358;DHT22;2702;51.014;7.170;2022-08-11T20:47:54;26.00;99.90
5358;DHT22;2702;51.014;7.170;2022-08-11T20:50:39;26.00;99.90
5358;DHT22;2702;51.014;7.170;2022-08-11T20:53:25;25.90;99.90